Share

Barrow, AK

Nuiqsut (PAQT) Elev 39 ft | 70.21 °N, 150.99 °W | Change Station

Current weather conditions updated 1 hour ago

Overcast
Overcast
4 °F
Feels Like -9 °F
N
8
Wind Variable Wind from North
Sunrise 5:36 AM
Sunset 10:33 PM
Moon Waning Gibbous

Today is forecast to be nearly the same temperature as yesterday.

Pressure 29.95 in
Visibility 10.0 miles
Clouds Overcast 2900 ft
Windchill -9 °F
Dew Point 3 °F
Humidity 96%
Rainfall 0.00 in
Snow Depth Not available.
UV 0 out of 16
Pollen Not available.
Air Quality Not available.
Flu Activity Sporadic
METAR PAQT 190753Z AUTO 01007KT 10SM UP OVC029 M16/M16 A2994 RMK AO2 SLP140 P0000 T11561161 TSNO

More Conditions Fewer Conditions

Pressure 29.95 in
Visibility 10.0 miles
Clouds Overcast 2900 ft
Windchill -9 °F
Dew Point 3 °F
Humidity 96%
Rainfall 0.00 in
Snow Depth Not available.
UV 0 out of 16
Pollen Not available.
Air Quality Not available.
Flu Activity Sporadic
METAR PAQT 190753Z AUTO 01007KT 10SM UP OVC029 M16/M16 A2994 RMK AO2 SLP140 P0000 T11561161 TSNO

More Conditions Fewer Conditions

10-Day Weather Forecast

Almanac

Astronomy

Apr. 19, 2014 Rise Set
Actual Time 5:36 AM AKDT 10:33 PM AKDT
Civil Twilight 4:02 AM AKDT 12:10 AM AKDT
Nautical Twilight Sun does not rise Sun does not rise
Astronomical Twilight Sun does not rise Sun does not rise
Moon 4:38 AM AKDT 6:51 AM AKDT
Length of Visible Light 20h 08m
Length of Day
16h 56m
Tomorrow will be 10m 4s longer.
Waning Gibbous, 81% of the Moon is Illuminated
Today
Waning Gibbous
Apr 22
Last Quarter
Apr 29
New
May 6
First Quarter
May 14
Full

Today's Extremes

State Highs State Lows

Community

  • Sunset Silhouettes
    Sunset Silhouettes
  • FL sunset Perico Isle
    FL sunset Perico Isle
  • Cloudy spring view
    Cloudy spring view
  • Old barn
    Old barn
  • What's for Lunch?
    What's for Lunch?

WunderPhotos

Upload Photos

1,702,673 photos uploaded!

WunderBlogs® & News

Nearby

Snow Depth

Station Depth Elevation
Imnaviat Creek 95 in 3050 ft
Atigun Pass 37 in 4800 ft
Coldfoot 24 in 1040 ft
Gobblers Knob 8 in 2030 ft
Fort Yukon 16 in 430 ft

Coastal Water Temperatures

Place Temperature
No Stations Reporting

Earthquake Activity

City Distance Mag. Time & Date
No recent earthquake activity has been reported nearby.
Minimum magnitude displayed is 2.5.

Nearby Weather Stations

Station Location Temp. Windchill Dew Point Humidity Wind Precip. Elev Updated Type
HADS JUDY CREEK NEAR NUIQSUT 17W , Barrow, AK 2 °F 2 °F - - North  at  - 0.00 in / hr 42 ft 11:00 PM AKDT MADIS

Show More Stations Show Fewer Stations

What do you think?

We're not finished. Please let us know what you like, what you don't like, and what you are still missing.